Time;durP1;ratioP1;P1;durP2;ratioP2;P2;SDS_P1;SDS_P2;PMS_P1;PMS_P2;Temp;Humidity;BMP_temperature;BMP_pressure;BME280_temperature;BME280_humidity;BME280_pressure;Samples;Min_cycle;Max_cycle;Signal;HPM_P1;HPM_P2
2023/05/31 00:00:07;;;;;;;;;;;;;;;-144.99;98.94;52283.00;5084598;28;19942;-67
2023/05/31 00:02:34;;;;;;;;;;;;;;;-144.99;99.15;52289.13;5080190;28;19948;-66
2023/05/31 00:05:00;;;;;;;;;;;;;;;-144.99;99.28;52293.19;5082379;28;19924;-67
2023/05/31 00:07:27;;;;;;;;;;;;;;;-144.99;99.41;52315.59;5079330;28;20094;-67
2023/05/31 00:09:54;;;;;;;;;;;;;;;-144.99;99.42;52301.34;5086777;28;20283;-67
2023/05/31 00:12:20;;;;;;;;;;;;;;;-144.99;99.55;52348.22;5081962;28;20337;-69
2023/05/31 00:14:47;;;;;;;;;;;;;;;-144.99;99.80;52325.81;5075077;28;19950;-70
2023/05/31 00:17:15;;;;;;;;;;;;;;;-144.99;99.08;52321.72;5079802;28;20015;-68
2023/05/31 00:19:42;;;;;;;;;;;;;;;-144.99;99.67;52258.53;5086933;28;19938;-69
2023/05/31 00:22:09;;;;;;;;;;;;;;;-144.99;100.00;52293.19;5078954;28;20015;-69
2023/05/31 00:24:36;;;;;;;;;;;;;;;-144.99;99.52;52307.47;5083645;28;19924;-69
2023/05/31 00:27:03;;;;;;;;;;;;;;;-144.99;100.00;52297.25;5080513;28;20392;-69
2023/05/31 00:29:30;;;;;;;;;;;;;;;-144.99;100.00;52321.72;5076057;28;20014;-68
2023/05/31 00:31:57;;;;;;;;;;;;;;;-144.99;100.00;52252.44;5084432;28;20008;-71
2023/05/31 00:34:25;;;;;;;;;;;;;;;-144.99;100.00;52305.41;5076356;28;19968;-71
2023/05/31 00:36:52;;;;;;;;;;;;;;;-144.99;100.00;52309.50;5084541;28;20456;-72
2023/05/31 00:39:18;;;;;;;;;;;;;;;-144.99;100.00;52276.88;5080955;28;20488;-74
2023/05/31 00:41:45;;;;;;;;;;;;;;;-144.99;100.00;52291.16;5080608;28;20465;-71
2023/05/31 00:44:12;;;;;;;;;;;;;;;-144.99;100.00;52260.56;5073382;28;20010;-74
2023/05/31 00:46:39;;;;;;;;;;;;;;;-144.99;100.00;52276.88;5087814;28;20462;-73
2023/05/31 00:49:07;;;;;;;;;;;;;;;-144.99;99.72;52287.06;5082668;28;20375;-68
2023/05/31 00:51:36;;;;;;;;;;;;;;;-144.99;100.00;52309.50;5081158;28;19935;-68
2023/05/31 00:54:03;;;;;;;;;;;;;;;-144.99;98.91;52252.44;5082692;28;19939;-71
2023/05/31 00:56:30;;;;;;;;;;;;;;;-144.99;100.00;52305.41;5084353;28;20125;-71
2023/05/31 00:58:57;;;;;;;;;;;;;;;-144.99;100.00;52291.16;5085213;28;20037;-71
2023/05/31 01:01:26;;;;;;;;;;;;;;;-144.99;100.00;52317.66;5078146;28;19995;-72
2023/05/31 01:03:52;;;;;;;;;;;;;;;-144.99;100.00;52270.78;5078197;28;19928;-70
2023/05/31 01:06:19;;;;;;;;;;;;;;;-144.99;100.00;52297.25;5074598;28;19932;-71
2023/05/31 01:08:47;;;;;;;;;;;;;;;-144.99;100.00;52297.25;5081869;28;19931;-70
2023/05/31 01:11:19;;;;;;;;;;;;;;;-144.99;100.00;52327.84;5086363;28;19924;-62
2023/05/31 01:13:50;;;;;;;;;;;;;;;-144.99;100.00;52313.56;5084262;28;20028;-68
2023/05/31 01:16:23;;;;;;;;;;;;;;;-144.99;100.00;52289.13;5086813;28;19924;-67
2023/05/31 01:18:54;;;;;;;;;;;;;;;-144.99;100.00;52309.50;5086895;28;19943;-67
2023/05/31 01:21:27;;;;;;;;;;;;;;;-144.99;100.00;52293.19;5084382;28;20027;-67
2023/05/31 01:24:01;;;;;;;;;;;;;;;-144.99;99.67;52327.84;5080001;28;20030;-67
2023/05/31 01:26:42;;;;;;;;;;;;;;;-144.99;99.20;52299.31;5081974;28;19998;-67
2023/05/31 01:29:13;;;;;;;;;;;;;;;-144.99;99.02;52329.88;5070688;28;19932;-67
2023/05/31 01:31:41;;;;;;;;;;;;;;;-144.99;98.98;52276.88;5087830;28;19954;-68
2023/05/31 01:34:07;;;;;;;;;;;;;;;-144.99;98.83;52276.88;5078518;28;19928;-67
2023/05/31 01:36:34;;;;;;;;;;;;;;;-144.99;98.75;52303.38;5081767;28;19924;-67
2023/05/31 01:39:03;;;;;;;;;;;;;;;-144.99;98.69;52309.50;5082641;28;19971;-68
2023/05/31 01:41:31;;;;;;;;;;;;;;;-144.99;100.00;52268.72;5080919;28;20030;-68
2023/05/31 01:44:00;;;;;;;;;;;;;;;-144.99;100.00;52311.53;5077377;28;19954;-69
2023/05/31 01:46:27;;;;;;;;;;;;;;;-144.99;100.00;52285.03;5081664;28;19944;-68
2023/05/31 01:48:55;;;;;;;;;;;;;;;-144.99;100.00;52307.47;5072108;28;19935;-68
2023/05/31 01:51:22;;;;;;;;;;;;;;;-144.99;100.00;52309.50;5084708;28;19975;-68
2023/05/31 01:53:49;;;;;;;;;;;;;;;-144.99;100.00;52313.56;5087214;28;19932;-68
2023/05/31 01:56:16;;;;;;;;;;;;;;;-144.99;100.00;52283.00;5073842;28;19935;-63
2023/05/31 01:58:48;;;;;;;;;;;;;;;-144.99;100.00;52289.13;5077116;28;19930;-65
2023/05/31 02:01:18;;;;;;;;;;;;;;;-144.99;100.00;52293.19;5072953;28;20289;-64
2023/05/31 02:03:45;;;;;;;;;;;;;;;-144.99;100.00;52278.91;5083458;28;19924;-65
2023/05/31 02:06:12;;;;;;;;;;;;;;;-144.99;100.00;52309.50;5072727;28;20045;-65
2023/05/31 02:08:39;;;;;;;;;;;;;;;-144.99;100.00;52285.03;5072339;28;20381;-64
2023/05/31 02:11:06;;;;;;;;;;;;;;;-144.99;100.00;52338.03;5076694;28;19931;-65
2023/05/31 02:13:33;;;;;;;;;;;;;;;-144.99;100.00;52338.03;5073823;28;20031;-66
2023/05/31 02:16:00;;;;;;;;;;;;;;;-144.99;100.00;52333.94;5083761;28;19924;-65
2023/05/31 02:18:28;;;;;;;;;;;;;;;-144.99;100.00;52309.50;5083980;28;19924;-65
2023/05/31 02:20:55;;;;;;;;;;;;;;;-144.99;100.00;52289.13;5081645;28;19924;-65
2023/05/31 02:23:22;;;;;;;;;;;;;;;-144.99;100.00;52323.75;5085733;28;19940;-64
2023/05/31 02:25:49;;;;;;;;;;;;;;;-144.99;100.00;52313.56;5080113;28;20238;-63
2023/05/31 02:28:16;;;;;;;;;;;;;;;-144.99;100.00;52301.34;5084338;28;19928;-65
2023/05/31 02:30:53;;;;;;;;;;;;;;;-144.99;100.00;52305.41;5080346;28;19924;-65
2023/05/31 02:33:21;;;;;;;;;;;;;;;-144.99;100.00;52317.66;5087399;28;20079;-65
2023/05/31 02:35:50;;;;;;;;;;;;;;;-144.99;100.00;52301.34;5087012;28;19928;-65
2023/05/31 02:38:17;;;;;;;;;;;;;;;-144.99;100.00;52319.69;5068374;28;19924;-65
2023/05/31 02:40:43;;;;;;;;;;;;;;;-144.99;100.00;52268.72;5084147;28;19924;-64
2023/05/31 02:43:10;;;;;;;;;;;;;;;-144.99;100.00;52299.31;5073234;28;19932;-65
2023/05/31 02:45:37;;;;;;;;;;;;;;;-144.99;100.00;52325.81;5072880;28;19928;-65
2023/05/31 02:48:05;;;;;;;;;;;;;;;-144.99;100.00;52293.19;5078124;28;20105;-65
2023/05/31 02:50:31;;;;;;;;;;;;;;;-144.99;100.00;52321.72;5081198;28;20355;-65
2023/05/31 02:53:00;;;;;;;;;;;;;;;-144.99;100.00;52285.03;5077536;28;20396;-66
2023/05/31 02:55:27;;;;;;;;;;;;;;;-144.99;100.00;52272.81;5077106;28;19931;-66
2023/05/31 02:57:53;;;;;;;;;;;;;;;-144.99;98.61;52301.34;5077454;28;19931;-66
2023/05/31 03:00:20;;;;;;;;;;;;;;;-144.99;97.69;52297.25;5077161;28;19934;-65
2023/05/31 03:02:47;;;;;;;;;;;;;;;-144.99;97.38;52307.47;5082679;28;20364;-66
2023/05/31 03:05:14;;;;;;;;;;;;;;;-144.99;97.17;52305.41;5074437;28;20316;-66
2023/05/31 03:07:40;;;;;;;;;;;;;;;-144.99;96.78;52317.66;5074553;28;20120;-66
2023/05/31 03:10:10;;;;;;;;;;;;;;;-144.99;96.78;52285.03;5083326;28;19928;-66
2023/05/31 03:12:37;;;;;;;;;;;;;;;-144.99;97.05;52321.72;5079766;28;20007;-66
2023/05/31 03:15:04;;;;;;;;;;;;;;;-144.99;99.76;52289.13;5073922;28;19940;-64
2023/05/31 03:17:31;;;;;;;;;;;;;;;-144.99;100.00;52348.22;5072195;28;19934;-64
2023/05/31 03:19:57;;;;;;;;;;;;;;;-144.99;100.00;52295.22;5084971;28;19951;-65
2023/05/31 03:22:25;;;;;;;;;;;;;;;-144.99;100.00;52338.03;5079768;28;20145;-67
2023/05/31 03:24:51;;;;;;;;;;;;;;;-144.99;100.00;52329.88;5083653;28;20038;-66
2023/05/31 03:27:19;;;;;;;;;;;;;;;-144.99;100.00;52354.34;5077755;28;19928;-66
2023/05/31 03:29:46;;;;;;;;;;;;;;;-144.99;100.00;52317.66;5074228;28;19924;-67
2023/05/31 03:32:13;;;;;;;;;;;;;;;-144.99;100.00;52289.13;5077136;28;19924;-67
2023/05/31 03:34:40;;;;;;;;;;;;;;;-144.99;100.00;52313.56;5076758;28;20300;-67
2023/05/31 03:37:06;;;;;;;;;;;;;;;-144.99;100.00;52346.19;5080393;28;19928;-62
2023/05/31 03:39:33;;;;;;;;;;;;;;;-144.99;100.00;52323.75;5084610;28;19924;-72
2023/05/31 03:42:01;;;;;;;;;;;;;;;-144.99;100.00;52297.25;5080261;28;20375;-69
2023/05/31 03:44:29;;;;;;;;;;;;;;;-144.99;100.00;52317.66;5076584;28;19929;-71
2023/05/31 03:46:56;;;;;;;;;;;;;;;-144.99;100.00;52305.41;5072753;28;20476;-69
2023/05/31 03:49:22;;;;;;;;;;;;;;;-144.99;100.00;52287.06;5083736;28;20408;-71
2023/05/31 03:51:49;;;;;;;;;;;;;;;-144.99;100.00;52342.09;5086694;28;20403;-69
2023/05/31 03:54:16;;;;;;;;;;;;;;;-144.99;100.00;52264.66;5072440;28;20357;-64
2023/05/31 03:56:42;;;;;;;;;;;;;;;-144.99;100.00;52325.81;5079648;28;19931;-68
2023/05/31 03:59:09;;;;;;;;;;;;;;;-144.99;100.00;52342.09;5070257;28;19929;-69
2023/05/31 04:01:37;;;;;;;;;;;;;;;-144.99;100.00;52338.03;5087797;28;20028;-64
2023/05/31 04:04:04;;;;;;;;;;;;;;;-144.99;100.00;52321.72;5078836;28;19924;-64
2023/05/31 04:06:31;;;;;;;;;;;;;;;-144.99;100.00;52272.81;5082912;28;19932;-64
2023/05/31 04:08:58;;;;;;;;;;;;;;;-144.99;100.00;52325.81;5081506;28;19939;-64
2023/05/31 04:11:25;;;;;;;;;;;;;;;-144.99;100.00;52262.63;5084404;28;19939;-65
2023/05/31 04:13:53;;;;;;;;;;;;;;;-144.99;100.00;52333.94;5073560;28;19935;-67
2023/05/31 04:16:19;;;;;;;;;;;;;;;-144.99;100.00;52333.94;5085234;28;20035;-66
2023/05/31 04:18:47;;;;;;;;;;;;;;;-144.99;100.00;52305.41;5078638;28;19947;-66
2023/05/31 04:21:14;;;;;;;;;;;;;;;-144.99;100.00;52297.25;5084774;28;19956;-66
2023/05/31 04:23:41;;;;;;;;;;;;;;;-144.99;100.00;52272.81;5076364;28;20538;-67
2023/05/31 04:26:07;;;;;;;;;;;;;;;-144.99;100.00;52325.81;5083002;28;20400;-70
2023/05/31 04:28:34;;;;;;;;;;;;;;;-144.99;100.00;52287.06;5075544;28;19929;-65
2023/05/31 04:31:01;;;;;;;;;;;;;;;-144.99;100.00;52299.31;5086694;22;19979;-66
2023/05/31 04:33:31;;;;;;;;;;;;;;;-144.99;100.00;52272.81;5045293;28;19929;-67
2023/05/31 04:35:59;;;;;;;;;;;;;;;-144.99;100.00;52285.03;5046313;28;19929;-67
2023/05/31 04:38:27;;;;;;;;;;;;;;;-144.99;100.00;52285.03;5039075;28;19925;-68
2023/05/31 04:40:55;;;;;;;;;;;;;;;-144.99;100.00;52289.13;5046623;28;19940;-67
2023/05/31 04:43:22;;;;;;;;;;;;;;;-144.99;100.00;52250.38;5038853;28;20347;-67
2023/05/31 04:45:48;;;;;;;;;;;;;;;-144.99;100.00;52285.03;5050479;28;19924;-67
2023/05/31 04:48:16;;;;;;;;;;;;;;;-144.99;100.00;52293.19;5033503;28;20366;-68
2023/05/31 04:50:43;;;;;;;;;;;;;;;-144.99;100.00;52321.72;5046063;28;19929;-67
2023/05/31 04:53:11;;;;;;;;;;;;;;;-144.99;100.00;52280.97;5046784;28;19983;-67
2023/05/31 04:55:38;;;;;;;;;;;;;;;-144.99;100.00;52293.19;5039969;28;19929;-67
2023/05/31 04:58:05;;;;;;;;;;;;;;;-144.99;100.00;52260.56;5046053;28;20311;-63
2023/05/31 05:00:32;;;;;;;;;;;;;;;-144.99;99.15;52252.44;5045002;28;19935;-61
2023/05/31 05:02:58;;;;;;;;;;;;;;;-144.99;98.33;52266.69;5044750;28;20023;-63
2023/05/31 05:05:25;;;;;;;;;;;;;;;-144.99;100.00;52287.06;5049016;28;19987;-62
2023/05/31 05:07:52;;;;;;;;;;;;;;;-144.99;100.00;52252.44;5049807;28;19929;-64
2023/05/31 05:10:20;;;;;;;;;;;;;;;-144.99;100.00;52232.03;5045499;28;19936;-63
2023/05/31 05:12:47;;;;;;;;;;;;;;;-144.99;100.00;52232.03;5048516;28;20034;-66
2023/05/31 05:15:13;;;;;;;;;;;;;;;-144.99;97.99;52203.50;4684263;28;10000105;-66
2023/05/31 05:17:41;;;;;;;;;;;;;;;-144.99;96.43;52252.44;5041905;28;19928;-67
2023/05/31 05:20:10;;;;;;;;;;;;;;;-144.99;95.49;52195.34;5041964;28;19929;-65
2023/05/31 05:22:36;;;;;;;;;;;;;;;-144.99;95.11;52195.34;5039215;28;20010;-66
2023/05/31 05:25:03;;;;;;;;;;;;;;;-144.99;96.94;52260.56;5034262;28;20016;-65
2023/05/31 05:27:31;;;;;;;;;;;;;;;-144.99;96.89;52248.34;5040001;28;20286;-65
2023/05/31 05:29:58;;;;;;;;;;;;;;;-144.99;97.00;52236.13;5041826;28;19929;-65
2023/05/31 05:32:25;;;;;;;;;;;;;;;-144.99;95.51;52227.97;5042378;28;20289;-67
2023/05/31 05:34:53;;;;;;;;;;;;;;;-144.99;96.29;52240.19;5035892;28;20217;-65
2023/05/31 05:37:20;;;;;;;;;;;;;;;-144.99;94.69;52209.63;5044448;28;20441;-66
2023/05/31 05:39:47;;;;;;;;;;;;;;;-144.99;95.55;52232.03;5042899;28;20023;-65
2023/05/31 05:42:14;;;;;;;;;;;;;;;-144.99;95.48;52232.03;5039403;28;19929;-66
2023/05/31 05:44:42;;;;;;;;;;;;;;;-144.99;93.36;52232.03;5036439;28;20039;-66
2023/05/31 05:47:08;;;;;;;;;;;;;;;-144.99;91.63;52187.19;5042335;28;19978;-65
2023/05/31 05:49:35;;;;;;;;;;;;;;;-144.99;90.97;52207.59;5039416;28;19943;-65
2023/05/31 05:52:02;;;;;;;;;;;;;;;-144.99;91.40;52195.34;5043606;28;20262;-65
2023/05/31 05:54:28;;;;;;;;;;;;;;;-144.99;90.19;52236.13;5042251;28;19928;-66
2023/05/31 05:56:55;;;;;;;;;;;;;;;-144.99;90.56;52207.59;5043960;28;19925;-66
2023/05/31 05:59:22;;;;;;;;;;;;;;;-144.99;90.31;52219.81;5039853;28;19940;-65
2023/05/31 06:01:50;;;;;;;;;;;;;;;-144.99;88.77;52217.78;5036258;28;19929;-65
2023/05/31 06:04:16;;;;;;;;;;;;;;;-144.99;87.51;52162.75;5043740;28;19964;-65
2023/05/31 06:06:43;;;;;;;;;;;;;;;-144.99;85.27;52177.00;5044685;28;19929;-65
2023/05/31 06:09:10;;;;;;;;;;;;;;;-144.99;84.89;52179.06;5040551;28;20468;-65
2023/05/31 06:11:37;;;;;;;;;;;;;;;-144.99;84.26;52199.44;5041469;28;19929;-66
2023/05/31 06:14:03;;;;;;;;;;;;;;;-144.99;83.20;52150.53;5041189;28;19924;-65
2023/05/31 06:16:30;;;;;;;;;;;;;;;-144.99;82.53;52195.34;5039785;28;19928;-65
2023/05/31 06:18:58;;;;;;;;;;;;;;;-144.99;82.07;52195.34;5039736;28;20328;-65
2023/05/31 06:21:25;;;;;;;;;;;;;;;-144.99;81.16;52223.88;5032981;28;19935;-65
2023/05/31 06:23:51;;;;;;;;;;;;;;;-144.99;80.57;52199.44;5043482;28;19928;-66
2023/05/31 06:26:18;;;;;;;;;;;;;;;-144.99;80.30;52158.66;5034875;28;19925;-65
2023/05/31 06:28:45;;;;;;;;;;;;;;;-144.99;79.65;52201.47;5035821;28;20208;-67
2023/05/31 06:31:12;;;;;;;;;;;;;;;-144.99;78.73;52134.22;5031414;28;19929;-65
2023/05/31 06:33:39;;;;;;;;;;;;;;;-144.99;77.93;52183.13;5032799;28;19936;-65
2023/05/31 06:36:07;;;;;;;;;;;;;;;-144.99;76.86;52158.66;5043275;28;20162;-65
2023/05/31 06:38:34;;;;;;;;;;;;;;;-144.99;76.45;52187.19;5038075;28;20388;-65
2023/05/31 06:41:01;;;;;;;;;;;;;;;-144.99;76.34;52170.91;5036512;28;20005;-65
2023/05/31 06:43:27;;;;;;;;;;;;;;;-144.99;75.93;52183.13;5036173;28;19972;-64
2023/05/31 06:45:54;;;;;;;;;;;;;;;-144.99;75.48;52187.19;5043580;28;19925;-65
2023/05/31 06:48:21;;;;;;;;;;;;;;;-144.99;75.29;52187.19;5036232;28;19925;-66
2023/05/31 06:50:47;;;;;;;;;;;;;;;-144.99;74.98;52146.44;5038815;28;19966;-66
2023/05/31 06:53:16;;;;;;;;;;;;;;;-144.99;75.26;52181.09;5036344;28;20381;-66
2023/05/31 06:55:42;;;;;;;;;;;;;;;-144.99;74.76;52152.56;5044769;28;19941;-65
2023/05/31 06:58:09;;;;;;;;;;;;;;;-144.99;74.68;52179.06;5044391;28;20110;-65
2023/05/31 07:00:35;;;;;;;;;;;;;;;-144.99;74.54;52170.91;5036618;28;19936;-65
2023/05/31 07:03:02;;;;;;;;;;;;;;;-144.99;74.29;52130.13;5043250;28;19929;-65
2023/05/31 07:05:30;;;;;;;;;;;;;;;-144.99;73.88;52130.13;4695855;28;10000523;-65
2023/05/31 07:07:56;;;;;;;;;;;;;;;-144.99;72.85;52146.44;5045495;28;20353;-66
2023/05/31 07:10:27;;;;;;;;;;;;;;;-144.99;72.58;52158.66;5032300;28;20401;-65
2023/05/31 07:12:53;;;;;;;;;;;;;;;-144.99;72.26;52162.75;5036345;28;19929;-65
2023/05/31 07:15:20;;;;;;;;;;;;;;;-144.99;72.27;52170.91;5039786;28;19932;-68
2023/05/31 07:17:47;;;;;;;;;;;;;;;-144.99;72.19;52187.19;5035787;28;19929;-65
2023/05/31 07:20:13;;;;;;;;;;;;;;;-144.99;72.10;52158.66;5039254;28;19928;-66
2023/05/31 07:22:40;;;;;;;;;;;;;;;-144.99;71.81;52134.22;5034776;28;19929;-66
2023/05/31 07:25:07;;;;;;;;;;;;;;;-144.99;71.81;52140.31;5031201;28;19929;-66
2023/05/31 07:27:35;;;;;;;;;;;;;;;-144.99;71.62;52113.84;5038639;28;20035;-70
2023/05/31 07:30:02;;;;;;;;;;;;;;;-144.99;70.92;52109.75;5038440;28;19925;-66
2023/05/31 07:32:29;;;;;;;;;;;;;;;-144.99;70.54;52130.13;5042367;28;19929;-66
2023/05/31 07:34:55;;;;;;;;;;;;;;;-144.99;70.00;52107.72;5034527;28;19929;-65
2023/05/31 07:37:22;;;;;;;;;;;;;;;-144.99;68.98;52103.66;5042456;28;19929;-65
2023/05/31 07:39:49;;;;;;;;;;;;;;;-144.99;69.29;52146.44;5040752;28;19936;-65
2023/05/31 07:42:16;;;;;;;;;;;;;;;-144.99;69.45;52111.78;5039671;28;19935;-66
2023/05/31 07:44:44;;;;;;;;;;;;;;;-144.99;69.52;52166.81;5034219;28;19933;-65
2023/05/31 07:47:11;;;;;;;;;;;;;;;-144.99;69.48;52121.97;5040091;28;20395;-65
2023/05/31 07:49:37;;;;;;;;;;;;;;;-144.99;69.13;52121.97;5030317;28;20413;-65
2023/05/31 07:52:04;;;;;;;;;;;;;;;-144.99;68.93;52124.03;5039442;28;20025;-65
2023/05/31 07:54:31;;;;;;;;;;;;;;;-144.99;68.93;52148.47;5041707;28;19935;-66
2023/05/31 07:56:58;;;;;;;;;;;;;;;-144.99;68.64;52121.97;5042199;28;19929;-65
2023/05/31 07:59:24;;;;;;;;;;;;;;;-144.99;68.38;52077.16;5036079;28;19935;-67
2023/05/31 08:01:53;;;;;;;;;;;;;;;-144.99;68.65;52130.13;5040130;28;19925;-66
2023/05/31 08:04:19;;;;;;;;;;;;;;;-144.99;68.01;52150.53;5033766;28;19939;-66
2023/05/31 08:06:46;;;;;;;;;;;;;;;-144.99;67.47;52111.78;5042133;28;19930;-65
2023/05/31 08:09:13;;;;;;;;;;;;;;;-144.99;67.55;52134.22;5041953;28;20019;-66
2023/05/31 08:11:40;;;;;;;;;;;;;;;-144.99;67.85;52113.84;5041183;28;19929;-65
2023/05/31 08:14:06;;;;;;;;;;;;;;;-144.99;67.68;52105.69;5034308;28;19929;-66
2023/05/31 08:16:34;;;;;;;;;;;;;;;-144.99;67.35;52101.59;5041477;28;20479;-66
2023/05/31 08:19:02;;;;;;;;;;;;;;;-144.99;66.20;52111.78;5038332;28;20019;-66
2023/05/31 08:21:29;;;;;;;;;;;;;;;-144.99;65.62;52105.69;5041083;28;19936;-67
2023/05/31 08:23:56;;;;;;;;;;;;;;;-144.99;63.87;52117.91;5041730;28;20312;-67
2023/05/31 08:26:23;;;;;;;;;;;;;;;-144.99;64.28;52126.06;5038504;28;19968;-69
2023/05/31 08:28:49;;;;;;;;;;;;;;;-144.99;65.00;52121.97;5034923;28;20028;-67
2023/05/31 08:31:16;;;;;;;;;;;;;;;-144.99;65.46;52113.84;5040223;28;20035;-65
2023/05/31 08:33:53;;;;;;;;;;;;;;;-144.99;65.51;52134.22;5039440;28;20353;-67
2023/05/31 08:36:21;;;;;;;;;;;;;;;-144.99;65.54;52109.75;5036200;28;19936;-66
2023/05/31 08:38:48;;;;;;;;;;;;;;;-144.99;65.39;52101.59;5039989;28;20566;-66
2023/05/31 08:41:15;;;;;;;;;;;;;;;-144.99;65.47;52113.84;5043363;28;20385;-66
2023/05/31 08:43:42;;;;;;;;;;;;;;;-144.99;65.88;52101.59;5038889;28;19936;-66
2023/05/31 08:46:09;;;;;;;;;;;;;;;-144.99;65.99;52085.31;5036151;28;19929;-68
2023/05/31 08:48:39;;;;;;;;;;;;;;;-144.99;65.12;52109.75;5041920;28;20380;-66
2023/05/31 08:51:07;;;;;;;;;;;;;;;-144.99;64.67;52109.75;5037490;28;19929;-67
2023/05/31 08:53:35;;;;;;;;;;;;;;;-144.99;63.82;52083.25;5042952;28;19933;-67
2023/05/31 08:56:02;;;;;;;;;;;;;;;-144.99;63.57;52117.91;5046324;28;19935;-68
2023/05/31 08:58:29;;;;;;;;;;;;;;;-144.99;63.31;52081.22;5034557;28;19956;-66
2023/05/31 09:00:56;;;;;;;;;;;;;;;-144.99;63.48;52097.53;5037370;28;20424;-68
2023/05/31 09:03:23;;;;;;;;;;;;;;;-144.99;63.40;52113.84;5044795;28;19940;-67
2023/05/31 09:05:51;;;;;;;;;;;;;;;-144.99;63.67;52107.72;5045178;28;19928;-68
2023/05/31 09:08:18;;;;;;;;;;;;;;;-144.99;63.55;52097.53;5037296;28;19996;-67
2023/05/31 09:10:46;;;;;;;;;;;;;;;-144.99;63.09;52101.59;5034912;28;20513;-67
2023/05/31 09:13:13;;;;;;;;;;;;;;;-144.99;62.38;52113.84;5034810;28;19935;-67
2023/05/31 09:15:43;;;;;;;;;;;;;;;-144.99;61.53;52109.75;5030234;28;20283;-67
2023/05/31 09:18:15;;;;;;;;;;;;;;;-144.99;61.76;52069.00;5044040;28;19995;-68
2023/05/31 09:20:42;;;;;;;;;;;;;;;-144.99;61.45;52062.88;5043148;28;20300;-68
2023/05/31 09:23:09;;;;;;;;;;;;;;;-144.99;61.00;52077.16;5039778;28;19929;-66
2023/05/31 09:25:48;;;;;;;;;;;;;;;-144.99;60.78;52060.84;5040635;28;19929;-68
2023/05/31 09:28:15;;;;;;;;;;;;;;;-144.99;60.62;52105.69;5038989;28;19928;-67
2023/05/31 09:30:42;;;;;;;;;;;;;;;-144.99;60.90;52089.38;5040292;28;19929;-66
2023/05/31 09:33:08;;;;;;;;;;;;;;;-144.99;59.52;52085.31;5044153;28;19932;-67
2023/05/31 09:35:35;;;;;;;;;;;;;;;-144.99;59.56;52093.44;5035522;28;20089;-67
2023/05/31 09:38:04;;;;;;;;;;;;;;;-144.99;60.00;52085.31;5043903;28;19928;-67
2023/05/31 09:40:32;;;;;;;;;;;;;;;-144.99;60.80;52105.69;5038609;28;20070;-67
2023/05/31 09:43:01;;;;;;;;;;;;;;;-144.99;60.76;52062.88;5035425;28;19925;-68
2023/05/31 09:45:28;;;;;;;;;;;;;;;-144.99;60.04;52044.53;5037629;28;20366;-67
2023/05/31 09:47:55;;;;;;;;;;;;;;;-144.99;59.54;52060.84;5041668;28;19929;-68
2023/05/31 09:50:22;;;;;;;;;;;;;;;-144.99;59.24;52085.31;5034268;28;20345;-68
2023/05/31 09:52:51;;;;;;;;;;;;;;;-144.99;59.31;52085.31;5042968;28;19932;-68
2023/05/31 09:55:18;;;;;;;;;;;;;;;-144.99;59.74;52032.31;5042525;28;19933;-68
2023/05/31 09:57:45;;;;;;;;;;;;;;;-144.99;59.69;52085.31;5039554;28;19928;-67
2023/05/31 10:00:15;;;;;;;;;;;;;;;-144.99;60.15;52060.84;5030903;28;20377;-67
2023/05/31 10:02:43;;;;;;;;;;;;;;;-144.99;60.75;52105.69;5039728;28;19936;-67
2023/05/31 10:05:10;;;;;;;;;;;;;;;-144.99;60.32;52077.16;5038693;28;19935;-67
2023/05/31 10:07:37;;;;;;;;;;;;;;;-144.99;60.25;52091.41;5041039;28;19979;-68
2023/05/31 10:10:04;;;;;;;;;;;;;;;-144.99;60.07;52069.00;5043634;28;20280;-68
2023/05/31 10:12:33;;;;;;;;;;;;;;;-144.99;60.31;52048.63;5037968;28;19928;-68
2023/05/31 10:15:02;;;;;;;;;;;;;;;-144.99;60.10;52060.84;5041483;28;19937;-68
2023/05/31 10:17:35;;;;;;;;;;;;;;;-144.99;59.86;52048.63;5041795;28;20024;-68
2023/05/31 10:20:04;;;;;;;;;;;;;;;-144.99;59.53;52048.63;5039628;28;19925;-68
2023/05/31 10:22:31;;;;;;;;;;;;;;;-144.99;59.42;52042.50;5043737;28;19947;-68
2023/05/31 10:25:01;;;;;;;;;;;;;;;-144.99;59.74;52077.16;5041904;28;20023;-68
2023/05/31 10:27:31;;;;;;;;;;;;;;;-144.99;60.32;51991.56;5043220;28;19936;-69
2023/05/31 10:30:04;;;;;;;;;;;;;;;-144.99;60.31;52040.47;5037519;28;19955;-68
2023/05/31 10:32:33;;;;;;;;;;;;;;;-144.99;59.73;52056.78;5035491;28;19929;-67
2023/05/31 10:35:01;;;;;;;;;;;;;;;-144.99;59.62;52032.31;5038965;28;19929;-68
2023/05/31 10:37:28;;;;;;;;;;;;;;;-144.99;60.05;52038.44;5033752;28;19932;-68
2023/05/31 10:39:59;;;;;;;;;;;;;;;-144.99;60.53;52009.91;5037053;28;19939;-67
2023/05/31 10:42:28;;;;;;;;;;;;;;;-144.99;60.74;51999.69;5038609;28;19929;-68
2023/05/31 10:44:58;;;;;;;;;;;;;;;-144.99;60.71;52032.31;5031949;28;19933;-68
2023/05/31 10:47:27;;;;;;;;;;;;;;;-144.99;61.29;52003.78;5041742;28;19928;-69
2023/05/31 10:49:56;;;;;;;;;;;;;;;-144.99;61.70;52001.75;5039889;28;19928;-68
2023/05/31 10:52:23;;;;;;;;;;;;;;;-144.99;61.58;52005.81;5038022;28;19929;-69
2023/05/31 10:54:50;;;;;;;;;;;;;;;-144.99;61.43;52007.84;5035945;28;19952;-69
2023/05/31 10:57:16;;;;;;;;;;;;;;;-144.99;60.89;51977.28;5032086;28;20346;-69
2023/05/31 10:59:45;;;;;;;;;;;;;;;-144.99;60.86;52003.78;5039860;28;19928;-69
2023/05/31 11:02:12;;;;;;;;;;;;;;;-144.99;62.09;52020.09;5035553;28;19998;-69
2023/05/31 11:04:39;;;;;;;;;;;;;;;-144.99;61.64;51997.66;5040799;28;20464;-68
2023/05/31 11:07:14;;;;;;;;;;;;;;;-144.99;61.52;51956.91;5039910;28;19941;-68
2023/05/31 11:09:42;;;;;;;;;;;;;;;-144.99;61.33;51977.28;5042410;28;20019;-68
2023/05/31 11:12:12;;;;;;;;;;;;;;;-144.99;61.25;51989.50;5043024;28;19929;-69
2023/05/31 11:14:39;;;;;;;;;;;;;;;-144.99;60.66;51967.09;5035504;28;19935;-69
2023/05/31 11:17:15;;;;;;;;;;;;;;;-144.99;61.12;51979.31;5039894;28;19959;-68
2023/05/31 11:19:43;;;;;;;;;;;;;;;-144.99;61.15;51983.41;5034513;28;20065;-67
2023/05/31 11:22:10;;;;;;;;;;;;;;;-144.99;60.97;51995.63;5032942;28;19936;-67
2023/05/31 11:24:39;;;;;;;;;;;;;;;-144.99;61.02;51989.50;5036256;28;19929;-68
2023/05/31 11:27:07;;;;;;;;;;;;;;;-144.99;61.34;51993.59;5039330;28;19933;-69
2023/05/31 11:29:52;;;;;;;;;;;;;;;-144.99;61.93;51983.41;5028602;28;19929;-69
2023/05/31 11:32:18;;;;;;;;;;;;;;;-144.99;61.75;52011.94;5041524;28;19936;-70
2023/05/31 11:34:53;;;;;;;;;;;;;;;-144.99;61.13;51987.47;5041632;28;20436;-68
2023/05/31 11:37:21;;;;;;;;;;;;;;;-144.99;61.68;52020.09;5034919;28;19925;-69
2023/05/31 11:39:49;;;;;;;;;;;;;;;-144.99;61.97;51977.28;5041232;28;20012;-68
2023/05/31 11:42:16;;;;;;;;;;;;;;;-144.99;61.97;52064.91;5044690;28;19932;-70
2023/05/31 11:44:43;;;;;;;;;;;;;;;-144.99;61.93;52003.78;5042510;28;20297;-68
2023/05/31 11:47:11;;;;;;;;;;;;;;;-144.99;60.60;52007.84;5036925;28;19928;-69
2023/05/31 11:49:38;;;;;;;;;;;;;;;-144.99;60.46;51983.41;5037319;28;19935;-69
2023/05/31 11:52:05;;;;;;;;;;;;;;;-144.99;60.50;52007.84;5038360;28;19930;-68
2023/05/31 11:54:32;;;;;;;;;;;;;;;-144.99;60.17;52022.13;5035227;28;20292;-70
2023/05/31 11:57:03;;;;;;;;;;;;;;;-144.99;59.95;51991.56;5034863;28;19925;-69
2023/05/31 11:59:32;;;;;;;;;;;;;;;-144.99;59.36;52030.28;5029800;28;20038;-69
2023/05/31 12:02:00;;;;;;;;;;;;;;;-144.99;59.65;52007.84;5035228;28;19972;-68
2023/05/31 12:04:33;;;;;;;;;;;;;;;-144.99;59.42;52073.06;5041671;28;19933;-68
2023/05/31 12:07:00;;;;;;;;;;;;;;;-144.99;59.95;52026.19;5034353;28;19933;-67
2023/05/31 12:09:27;;;;;;;;;;;;;;;-144.99;59.99;52024.16;5039732;28;19933;-69
2023/05/31 12:11:54;;;;;;;;;;;;;;;-144.99;60.10;52052.69;5045461;28;20024;-68
2023/05/31 12:14:22;;;;;;;;;;;;;;;-144.99;59.91;52018.03;5041940;28;19929;-68
2023/05/31 12:16:50;;;;;;;;;;;;;;;-144.99;59.83;52020.09;5039746;28;19929;-69
2023/05/31 12:19:17;;;;;;;;;;;;;;;-144.99;59.14;51995.63;5036695;28;19933;-69
2023/05/31 12:21:43;;;;;;;;;;;;;;;-144.99;59.00;51991.56;5044400;28;20386;-69
2023/05/31 12:24:13;;;;;;;;;;;;;;;-144.99;59.40;52032.31;5045288;28;19936;-69